Time;durP1;ratioP1;P1;durP2;ratioP2;P2;SDS_P1;SDS_P2;PMS_P1;PMS_P2;Temp;Humidity;BMP_temperature;BMP_pressure;BME280_temperature;BME280_humidity;BME280_pressure;Samples;Min_cycle;Max_cycle;Signal;HPM_P1;HPM_P2
2022/04/20 00:01:12;;;;;;;1.95;1.10;;;8.80;16.10;;;;;;4986581;28;34344;-74
2022/04/20 00:03:38;;;;;;;1.30;1.20;;;8.80;16.10;;;;;;4969814;28;36223;-74
2022/04/20 00:06:05;;;;;;;1.20;1.10;;;8.80;16.00;;;;;;4986274;28;34014;-74
2022/04/20 00:08:32;;;;;;;1.20;1.10;;;8.70;16.00;;;;;;4986392;28;34256;-74
2022/04/20 00:10:59;;;;;;;2.13;1.30;;;8.70;16.10;;;;;;4970382;28;34083;-74
2022/04/20 00:13:25;;;;;;;1.30;1.20;;;8.70;16.20;;;;;;5003796;28;34179;-74
2022/04/20 00:15:51;;;;;;;1.80;1.40;;;8.70;15.80;;;;;;5003952;28;34086;-74
2022/04/20 00:18:17;;;;;;;1.70;1.10;;;8.70;15.80;;;;;;4986224;28;34330;-74
2022/04/20 00:20:44;;;;;;;1.30;1.10;;;8.70;16.00;;;;;;4986292;28;34339;-74
2022/04/20 00:23:09;;;;;;;1.25;1.15;;;8.60;16.10;;;;;;4985887;28;36751;-74
2022/04/20 00:25:35;;;;;;;1.77;1.20;;;8.50;16.00;;;;;;5003857;28;34119;-76
2022/04/20 00:28:01;;;;;;;1.00;1.00;;;8.40;16.40;;;;;;5003746;28;34193;-74
2022/04/20 00:30:27;;;;;;;4.95;1.27;;;8.40;16.10;;;;;;5003532;28;34550;-75
2022/04/20 00:32:53;;;;;;;1.30;1.20;;;8.40;16.20;;;;;;4969622;28;35920;-74
2022/04/20 00:35:19;;;;;;;1.13;1.02;;;8.30;16.30;;;;;;4986099;28;34215;-74
2022/04/20 00:37:45;;;;;;;2.50;0.90;;;8.20;16.40;;;;;;4970133;28;34071;-74
2022/04/20 00:40:12;;;;;;;3.85;1.20;;;8.20;16.50;;;;;;4986279;28;34272;-74
2022/04/20 00:42:40;;;;;;;1.40;0.80;;;8.20;16.50;;;;;;5003124;28;34971;-74
2022/04/20 00:45:09;;;;;;;1.90;1.05;;;8.10;16.90;;;;;;4986412;28;34020;-74
2022/04/20 00:47:39;;;;;;;3.22;1.10;;;8.10;17.60;;;;;;4985847;28;34098;-74
2022/04/20 00:50:07;;;;;;;1.10;1.00;;;8.00;17.40;;;;;;4986513;28;34388;-74
2022/04/20 00:52:33;;;;;;;2.25;0.93;;;7.90;16.90;;;;;;4985569;28;36416;-74
2022/04/20 00:54:59;;;;;;;1.25;1.08;;;7.90;16.80;;;;;;5003358;28;34272;-74
2022/04/20 00:57:25;;;;;;;1.25;1.15;;;7.90;16.80;;;;;;4985432;28;34202;-73
2022/04/20 00:59:55;;;;;;;1.20;1.10;;;7.80;16.70;;;;;;5003570;28;34059;-74
2022/04/20 01:02:22;;;;;;;1.00;0.90;;;7.80;17.00;;;;;;4969841;28;35791;-73
2022/04/20 01:04:49;;;;;;;1.67;0.95;;;7.80;16.90;;;;;;5005316;28;34023;-74
2022/04/20 01:07:17;;;;;;;1.42;1.10;;;7.70;17.00;;;;;;4989056;28;34034;-74
2022/04/20 01:09:44;;;;;;;1.30;1.20;;;7.70;17.10;;;;;;4989252;28;34217;-74
2022/04/20 01:12:13;;;;;;;1.25;1.15;;;7.70;17.20;;;;;;4988918;28;36084;-74
2022/04/20 01:14:40;;;;;;;1.08;1.00;;;7.60;17.50;;;;;;4988723;28;34272;-74
2022/04/20 01:17:06;;;;;;;1.33;1.23;;;7.50;17.20;;;;;;4989339;28;34289;-74
2022/04/20 01:19:33;;;;;;;1.30;1.10;;;7.50;17.20;;;;;;4989153;28;34532;-74
2022/04/20 01:22:02;;;;;;;1.20;1.00;;;7.40;17.60;;;;;;4972442;28;36042;-74
2022/04/20 01:24:28;;;;;;;2.00;1.00;;;7.30;18.00;;;;;;4972481;28;34176;-74
2022/04/20 01:26:56;;;;;;;1.10;1.00;;;7.30;17.60;;;;;;4988657;28;34172;-75
2022/04/20 01:29:22;;;;;;;0.93;0.93;;;7.20;18.30;;;;;;4988884;28;34480;-74
2022/04/20 01:31:49;;;;;;;1.20;1.05;;;7.10;17.90;;;;;;5006003;28;34589;-74
2022/04/20 01:34:15;;;;;;;1.27;1.00;;;7.10;18.00;;;;;;4988746;28;33992;-74
2022/04/20 01:36:42;;;;;;;1.27;1.13;;;7.00;17.90;;;;;;4988607;28;34070;-74
2022/04/20 01:39:08;;;;;;;1.55;1.17;;;7.00;18.20;;;;;;4988810;28;34223;-74
2022/04/20 01:41:33;;;;;;;1.10;1.00;;;6.90;18.20;;;;;;4988520;28;34774;-74
2022/04/20 01:43:59;;;;;;;1.33;1.23;;;6.90;18.00;;;;;;4972255;28;34251;-74
2022/04/20 01:46:25;;;;;;;1.30;1.00;;;6.90;18.10;;;;;;4988477;28;34182;-74
2022/04/20 01:48:51;;;;;;;2.15;0.98;;;6.90;18.40;;;;;;4988824;28;34202;-74
2022/04/20 01:53:58;;;;;;;2.38;1.10;;;6.70;18.30;;;;;;5004930;28;34038;-74
2022/04/20 01:56:24;;;;;;;1.20;0.90;;;6.70;18.20;;;;;;5005698;28;34185;-74
2022/04/20 01:58:50;;;;;;;0.63;0.63;;;6.70;18.30;;;;;;5005579;28;34256;-73
2022/04/20 02:03:57;;;;;;;1.10;1.00;;;6.60;18.50;;;;;;5004881;28;33994;-74
2022/04/20 02:06:23;;;;;;;1.55;1.10;;;6.60;18.50;;;;;;5005613;28;34054;-74
2022/04/20 02:08:49;;;;;;;1.20;1.10;;;6.50;18.70;;;;;;5005759;28;34099;-74
2022/04/20 02:11:15;;;;;;;1.08;1.00;;;6.50;18.60;;;;;;4987550;28;35774;-74
2022/04/20 02:13:40;;;;;;;1.00;1.00;;;6.40;18.90;;;;;;5005936;28;34203;-74
2022/04/20 02:16:07;;;;;;;1.20;1.10;;;6.40;18.90;;;;;;4987945;28;34222;-74
2022/04/20 02:18:32;;;;;;;1.90;1.25;;;6.40;19.00;;;;;;4988346;28;34062;-74
2022/04/20 02:20:58;;;;;;;1.50;1.08;;;6.30;18.90;;;;;;4971583;28;36398;-74
2022/04/20 02:23:26;;;;;;;1.27;1.10;;;6.30;18.90;;;;;;4987616;28;34251;-74
2022/04/20 02:25:53;;;;;;;2.33;1.20;;;6.30;19.10;;;;;;4988657;28;34031;-74
2022/04/20 02:28:19;;;;;;;1.35;1.10;;;6.20;19.30;;;;;;4988053;28;34037;-74
2022/04/20 02:30:45;;;;;;;1.40;1.30;;;6.20;19.60;;;;;;4971284;28;35516;-74
2022/04/20 02:33:11;;;;;;;1.35;1.17;;;6.10;19.50;;;;;;5005640;28;34383;-74
2022/04/20 02:35:38;;;;;;;1.27;1.17;;;6.10;19.60;;;;;;4987856;28;34257;-74
2022/04/20 02:38:06;;;;;;;1.08;1.00;;;6.00;19.50;;;;;;4987821;28;34435;-74
2022/04/20 02:40:32;;;;;;;1.42;1.20;;;6.00;19.50;;;;;;5005061;28;34311;-74
2022/04/20 02:42:58;;;;;;;1.33;1.23;;;6.00;19.50;;;;;;4988042;28;34104;-74
2022/04/20 02:45:24;;;;;;;2.60;1.15;;;6.00;19.60;;;;;;4987337;28;34212;-74
2022/04/20 02:47:50;;;;;;;1.98;1.23;;;6.00;19.60;;;;;;5005123;28;34110;-74
2022/04/20 02:50:16;;;;;;;1.25;1.10;;;5.90;19.70;;;;;;4971547;28;36247;-74
2022/04/20 02:52:42;;;;;;;1.10;1.02;;;5.90;19.90;;;;;;4971461;28;34206;-74
2022/04/20 02:55:08;;;;;;;2.15;1.20;;;5.80;20.00;;;;;;5004823;28;34357;-74
2022/04/20 02:57:34;;;;;;;1.23;1.13;;;5.80;20.00;;;;;;5004797;28;34109;-74
2022/04/20 03:00:00;;;;;;;3.80;1.30;;;5.80;20.00;;;;;;4970836;28;35756;-74
2022/04/20 03:05:10;;;;;;;1.20;0.98;;;5.70;20.50;;;;;;4989426;28;34270;-74
2022/04/20 03:07:36;;;;;;;1.25;1.15;;;5.60;20.40;;;;;;4987470;28;34113;-74
2022/04/20 03:10:03;;;;;;;1.52;1.42;;;5.60;20.70;;;;;;5004421;28;34971;-74
2022/04/20 03:12:29;;;;;;;1.20;1.10;;;5.50;20.70;;;;;;5004417;28;34107;-74
2022/04/20 03:14:56;;;;;;;1.92;1.20;;;5.50;20.80;;;;;;4987128;28;34130;-74
2022/04/20 03:17:22;;;;;;;1.75;1.42;;;5.50;20.80;;;;;;4987142;28;34651;-74
2022/04/20 03:19:48;;;;;;;2.53;1.20;;;5.40;20.80;;;;;;4970867;28;36562;-74
2022/04/20 03:22:14;;;;;;;3.38;1.33;;;5.40;20.80;;;;;;4987081;28;34383;-74
2022/04/20 03:24:40;;;;;;;1.58;1.30;;;5.40;20.80;;;;;;4986638;28;34428;-74
2022/04/20 03:27:06;;;;;;;1.00;1.00;;;5.40;20.70;;;;;;4986486;28;34128;-74
2022/04/20 03:29:32;;;;;;;1.02;1.02;;;5.40;20.80;;;;;;4986797;28;36041;-74
2022/04/20 03:31:59;;;;;;;2.38;1.27;;;5.30;20.90;;;;;;4987066;28;34289;-74
2022/04/20 03:34:24;;;;;;;1.30;1.23;;;5.30;21.00;;;;;;4986576;28;34138;-74
2022/04/20 03:36:50;;;;;;;1.10;1.00;;;5.30;20.90;;;;;;4987098;28;34155;-74
2022/04/20 03:39:17;;;;;;;5.35;1.30;;;5.30;21.00;;;;;;4986688;28;36283;-74
2022/04/20 03:41:43;;;;;;;1.40;1.20;;;5.30;21.10;;;;;;5004083;28;34224;-75
2022/04/20 03:44:09;;;;;;;1.55;1.45;;;5.30;21.00;;;;;;4970682;28;34192;-74
2022/04/20 03:46:36;;;;;;;1.13;1.02;;;5.30;21.10;;;;;;4986057;28;34140;-75
2022/04/20 03:49:02;;;;;;;3.63;1.30;;;5.20;21.70;;;;;;4986623;28;35845;-74
2022/04/20 03:51:28;;;;;;;2.63;1.45;;;5.20;21.40;;;;;;4950599;28;34049;-74
2022/04/20 03:53:53;;;;;;;1.20;1.05;;;5.20;21.50;;;;;;4947859;28;34123;-74
2022/04/20 03:56:19;;;;;;;5.50;1.42;;;5.10;21.60;;;;;;4947945;28;34398;-74
2022/04/20 03:58:45;;;;;;;1.40;1.30;;;5.10;21.60;;;;;;4947430;28;35814;-74
2022/04/20 04:01:11;;;;;;;1.75;1.15;;;5.10;21.60;;;;;;4947853;28;34180;-74
2022/04/20 04:03:37;;;;;;;1.52;1.42;;;5.10;21.50;;;;;;4947745;28;34178;-74
2022/04/20 04:06:03;;;;;;;1.60;1.50;;;5.00;21.30;;;;;;4947748;28;34152;-74
2022/04/20 04:08:29;;;;;;;3.17;1.42;;;5.10;21.20;;;;;;4947177;28;35991;-74
2022/04/20 04:10:56;;;;;;;1.60;1.48;;;5.10;21.20;;;;;;4964857;28;34402;-74
2022/04/20 04:13:23;;;;;;;2.53;1.58;;;5.10;21.30;;;;;;4964774;28;34008;-74
2022/04/20 04:15:49;;;;;;;2.88;1.50;;;5.10;21.40;;;;;;4965065;28;33976;-74
2022/04/20 04:18:16;;;;;;;2.13;1.60;;;5.00;21.40;;;;;;4947060;28;36043;-74
2022/04/20 04:20:43;;;;;;;3.25;1.48;;;5.00;21.80;;;;;;4947431;28;34300;-74
2022/04/20 04:23:09;;;;;;;1.40;1.17;;;5.00;22.00;;;;;;4947562;28;34283;-75
2022/04/20 04:25:35;;;;;;;2.10;1.65;;;5.00;21.90;;;;;;4947324;28;34464;-74
2022/04/20 04:28:01;;;;;;;2.80;1.70;;;5.00;22.00;;;;;;4963144;28;34974;-74
2022/04/20 04:30:29;;;;;;;2.03;1.73;;;4.90;22.10;;;;;;4964510;28;34115;-74
2022/04/20 04:32:54;;;;;;;1.40;1.30;;;5.00;22.10;;;;;;4964707;28;34057;-74
2022/04/20 04:35:20;;;;;;;1.75;1.45;;;5.00;22.20;;;;;;4964564;28;34197;-74
2022/04/20 04:37:46;;;;;;;2.03;1.42;;;4.90;22.30;;;;;;4948009;28;35810;-74
2022/04/20 04:40:14;;;;;;;2.25;1.52;;;5.00;22.10;;;;;;4966805;28;34317;-74
2022/04/20 04:42:40;;;;;;;5.13;1.80;;;5.00;22.30;;;;;;4967369;28;34574;-73
2022/04/20 04:50:29;;;;;;;1.63;1.52;;;5.10;22.40;;;;;;4966447;28;34084;-75
2022/04/20 04:52:55;;;;;;;1.88;1.70;;;5.20;22.20;;;;;;4950205;28;34092;-74
2022/04/20 04:55:21;;;;;;;5.03;1.67;;;5.30;22.30;;;;;;4950441;28;35240;-74
2022/04/20 04:57:47;;;;;;;2.72;1.90;;;5.40;22.00;;;;;;4959484;28;36299;-75
2022/04/20 05:00:13;;;;;;;2.17;1.98;;;5.40;21.70;;;;;;4969653;28;34301;-75
2022/04/20 05:02:39;;;;;;;3.13;1.42;;;5.50;21.70;;;;;;4969401;28;34518;-74
2022/04/20 05:05:06;;;;;;;2.47;1.80;;;5.60;21.70;;;;;;4969659;28;34376;-74
2022/04/20 05:07:32;;;;;;;4.95;2.10;;;5.70;21.70;;;;;;4969457;28;35502;-74
2022/04/20 05:09:58;;;;;;;2.30;1.75;;;5.70;21.50;;;;;;4969781;28;34285;-74
2022/04/20 05:12:23;;;;;;;3.00;1.60;;;5.80;21.40;;;;;;4969026;28;34045;-74
2022/04/20 05:14:49;;;;;;;2.13;1.92;;;5.90;21.30;;;;;;4969580;28;34139;-74
2022/04/20 05:17:15;;;;;;;2.60;2.22;;;6.00;21.00;;;;;;4969069;28;35989;-74
2022/04/20 05:19:41;;;;;;;2.50;2.08;;;6.20;21.00;;;;;;4969543;28;34267;-74
2022/04/20 05:22:07;;;;;;;6.55;2.05;;;6.30;20.90;;;;;;4969466;28;34311;-74
2022/04/20 05:24:35;;;;;;;2.28;2.03;;;6.40;20.70;;;;;;4969379;28;34141;-74
2022/04/20 05:27:02;;;;;;;2.25;2.05;;;6.50;20.70;;;;;;4986570;28;35066;-74
2022/04/20 05:29:28;;;;;;;2.08;1.80;;;6.60;20.60;;;;;;4966731;28;34094;-76
2022/04/20 05:31:56;;;;;;;2.72;1.95;;;6.80;20.30;;;;;;4969121;28;34389;-76
2022/04/20 05:34:23;;;;;;;2.17;1.90;;;6.90;20.10;;;;;;4969243;28;34433;-75
2022/04/20 05:42:11;;;;;;;3.22;2.08;;;7.70;19.50;;;;;;4970692;28;34217;-75
2022/04/20 05:44:37;;;;;;;2.15;1.80;;;7.90;19.20;;;;;;4969220;28;34134;-75
2022/04/20 05:47:03;;;;;;;2.28;2.03;;;8.10;19.00;;;;;;4968839;28;35747;-75
2022/04/20 05:49:29;;;;;;;2.20;2.08;;;8.30;18.80;;;;;;4967949;28;34024;-75
2022/04/20 05:51:55;;;;;;;2.65;2.00;;;8.50;18.50;;;;;;4952726;28;34035;-75
2022/04/20 05:54:21;;;;;;;2.20;2.00;;;8.70;18.40;;;;;;4969279;28;34643;-75
2022/04/20 05:56:47;;;;;;;5.18;2.03;;;8.90;18.40;;;;;;4968396;28;35632;-75
2022/04/20 05:59:13;;;;;;;5.32;1.98;;;9.00;18.30;;;;;;4969304;28;34340;-75
2022/04/20 06:01:39;;;;;;;3.28;1.90;;;9.20;18.20;;;;;;4968560;28;34637;-75
2022/04/20 06:04:05;;;;;;;2.25;1.90;;;9.40;17.90;;;;;;4968856;28;34198;-74
2022/04/20 06:06:31;;;;;;;3.17;1.60;;;9.60;17.60;;;;;;4968025;28;34388;-75
2022/04/20 06:08:57;;;;;;;1.80;1.70;;;9.80;17.50;;;;;;4953486;28;34447;-75
2022/04/20 06:11:24;;;;;;;1.88;1.67;;;10.00;16.60;;;;;;4968235;28;34142;-75
2022/04/20 06:13:50;;;;;;;2.60;2.25;;;10.30;16.50;;;;;;4984854;28;34403;-75
2022/04/20 06:16:16;;;;;;;2.28;1.90;;;10.60;16.30;;;;;;4985545;28;35231;-75
2022/04/20 06:18:42;;;;;;;1.98;1.55;;;11.00;16.10;;;;;;4968161;28;34238;-75
2022/04/20 06:21:07;;;;;;;2.78;1.85;;;11.40;15.10;;;;;;4951885;28;34256;-75
2022/04/20 06:23:33;;;;;;;2.72;1.80;;;11.80;14.50;;;;;;4951911;28;34178;-75
2022/04/20 06:26:00;;;;;;;2.92;1.73;;;12.10;14.00;;;;;;4951955;28;35912;-75
2022/04/20 06:28:26;;;;;;;1.67;1.45;;;12.50;13.50;;;;;;4985126;28;34088;-75
2022/04/20 06:30:53;;;;;;;1.58;1.48;;;12.80;13.10;;;;;;4968343;28;34195;-75
2022/04/20 06:33:21;;;;;;;2.00;1.40;;;13.10;12.30;;;;;;4968204;28;34397;-75
2022/04/20 06:35:48;;;;;;;1.85;1.67;;;13.40;12.30;;;;;;4964649;28;35842;-75
2022/04/20 06:38:14;;;;;;;1.90;1.70;;;13.80;11.90;;;;;;4949272;28;34390;-75
2022/04/20 06:40:39;;;;;;;1.88;1.48;;;14.00;11.40;;;;;;4948383;28;34214;-74
2022/04/20 06:43:05;;;;;;;1.80;1.67;;;14.20;11.00;;;;;;4948619;28;34463;-75
2022/04/20 06:45:31;;;;;;;2.28;1.58;;;14.40;10.70;;;;;;4948394;28;34319;-75
2022/04/20 06:47:59;;;;;;;4.70;1.83;;;14.50;10.60;;;;;;4948894;28;34128;-74
2022/04/20 06:50:25;;;;;;;2.25;1.50;;;14.60;9.60;;;;;;4947964;28;34115;-75
2022/04/20 07:00:55;;;;;;;4.28;1.60;;;15.10;9.60;;;;;;4949069;28;34016;-75
2022/04/20 07:03:21;;;;;;;2.78;1.80;;;15.40;9.30;;;;;;4948373;28;34170;-76
2022/04/20 07:05:47;;;;;;;3.67;1.65;;;15.60;8.90;;;;;;4964533;28;35706;-75
2022/04/20 07:08:13;;;;;;;3.05;1.70;;;15.80;8.90;;;;;;4965830;28;34226;-75
2022/04/20 07:10:38;;;;;;;2.67;1.80;;;16.00;8.60;;;;;;4965177;28;34042;-75
2022/04/20 07:13:04;;;;;;;2.40;1.70;;;16.20;8.40;;;;;;4965696;28;34241;-76
2022/04/20 07:15:30;;;;;;;1.70;1.40;;;16.30;8.10;;;;;;4947802;28;36080;-75
2022/04/20 07:17:56;;;;;;;1.40;1.30;;;16.50;7.90;;;;;;4965321;28;34429;-76
2022/04/20 07:20:22;;;;;;;2.25;1.52;;;16.50;7.80;;;;;;4948109;28;34131;-76
2022/04/20 07:22:49;;;;;;;2.03;1.40;;;16.40;6.80;;;;;;4948496;28;34171;-75
2022/04/20 07:25:16;;;;;;;2.47;1.60;;;16.20;7.90;;;;;;4947461;28;35690;-75
2022/04/20 07:27:43;;;;;;;3.83;1.33;;;16.10;7.20;;;;;;4948026;28;34275;-74
2022/04/20 07:30:09;;;;;;;1.70;1.42;;;15.90;7.60;;;;;;4947825;28;34138;-75
2022/04/20 07:32:35;;;;;;;2.03;1.48;;;15.80;7.70;;;;;;4947732;28;34186;-75
2022/04/20 07:35:01;;;;;;;1.48;1.38;;;15.70;7.90;;;;;;4964877;28;34342;-77
2022/04/20 07:37:27;;;;;;;1.83;1.63;;;15.50;7.60;;;;;;4964075;28;34085;-75
2022/04/20 07:39:53;;;;;;;1.98;1.67;;;15.40;7.60;;;;;;4947739;28;34109;-74
2022/04/20 07:42:21;;;;;;;1.52;1.40;;;15.30;7.80;;;;;;4948199;28;34167;-75
2022/04/20 07:44:47;;;;;;;2.00;1.58;;;15.30;7.10;;;;;;4948183;28;34363;-75
2022/04/20 07:47:13;;;;;;;2.47;1.50;;;15.40;7.50;;;;;;4963910;28;34183;-74
2022/04/20 07:52:20;;;;;;;1.88;1.58;;;15.30;7.50;;;;;;4964525;28;34246;-75
2022/04/20 07:54:46;;;;;;;1.40;1.30;;;15.20;7.60;;;;;;4960301;28;36713;-75
2022/04/20 07:57:15;;;;;;;1.88;1.52;;;15.30;7.50;;;;;;4973120;28;34424;-74
2022/04/20 07:59:42;;;;;;;1.58;1.48;;;15.30;7.40;;;;;;4966652;28;34546;-74
2022/04/20 08:02:08;;;;;;;2.00;1.60;;;15.30;7.00;;;;;;4984675;28;34010;-76
2022/04/20 08:04:34;;;;;;;1.73;1.42;;;15.40;7.20;;;;;;4966375;28;35867;-76
2022/04/20 08:07:00;;;;;;;2.08;1.50;;;15.40;7.70;;;;;;4984401;28;34103;-76
2022/04/20 08:09:26;;;;;;;1.27;1.17;;;15.50;6.80;;;;;;4983390;28;34205;-77
2022/04/20 08:11:52;;;;;;;2.40;1.48;;;15.40;5.60;;;;;;4950423;28;34298;-75
2022/04/20 08:14:18;;;;;;;4.63;1.73;;;15.40;6.60;;;;;;4966329;28;35534;-74
2022/04/20 08:16:44;;;;;;;1.30;1.20;;;15.60;5.80;;;;;;4966995;28;34190;-77
2022/04/20 08:19:11;;;;;;;1.63;1.40;;;15.60;5.90;;;;;;4951236;28;34041;-74
2022/04/20 08:21:37;;;;;;;1.60;1.40;;;15.60;5.90;;;;;;4951103;28;34085;-76
2022/04/20 08:24:03;;;;;;;1.88;1.10;;;15.70;6.10;;;;;;4950728;28;36312;-76
2022/04/20 08:26:30;;;;;;;1.58;1.25;;;15.70;5.70;;;;;;4950618;28;34200;-76
2022/04/20 08:28:55;;;;;;;2.05;1.42;;;15.80;5.20;;;;;;4950647;28;34205;-76
2022/04/20 08:31:22;;;;;;;3.72;1.50;;;15.80;5.40;;;;;;4984212;28;34367;-75
2022/04/20 08:33:47;;;;;;;1.42;1.17;;;15.80;4.60;;;;;;4966440;28;36802;-75
2022/04/20 08:36:15;;;;;;;1.80;1.15;;;15.80;4.90;;;;;;4967632;28;34339;-75
2022/04/20 08:38:44;;;;;;;2.17;1.40;;;15.80;4.40;;;;;;4966511;28;34580;-77
2022/04/20 08:41:12;;;;;;;2.33;1.10;;;15.70;4.60;;;;;;4984088;28;34146;-77
2022/04/20 08:43:41;;;;;;;1.45;1.35;;;15.70;3.60;;;;;;4950773;28;35522;-76
2022/04/20 08:46:10;;;;;;;6.78;1.10;;;15.70;2.80;;;;;;4984579;28;34139;-77
2022/04/20 08:48:36;;;;;;;2.65;1.30;;;15.80;1.80;;;;;;4966194;28;34099;-78
2022/04/20 08:51:05;;;;;;;1.60;1.48;;;15.80;3.80;;;;;;4967273;28;34624;-76
2022/04/20 08:53:31;;;;;;;1.40;1.30;;;15.90;3.10;;;;;;4950385;28;35593;-76
2022/04/20 08:58:40;;;;;;;1.30;1.20;;;16.20;3.50;;;;;;4984220;28;34181;-76
2022/04/20 09:01:07;;;;;;;1.40;1.30;;;16.30;3.20;;;;;;4951649;28;34511;-76
2022/04/20 09:03:34;;;;;;;1.05;1.00;;;16.20;2.30;;;;;;4966523;28;35615;-76
2022/04/20 09:06:01;;;;;;;1.25;1.15;;;16.20;2.80;;;;;;4983614;28;34165;-75
2022/04/20 09:08:26;;;;;;;4.35;1.40;;;16.30;3.10;;;;;;4983485;28;34204;-77
2022/04/20 09:10:53;;;;;;;1.58;1.20;;;16.50;2.80;;;;;;4967513;28;34238;-77
2022/04/20 09:13:33;;;;;;;1.55;1.10;;;16.50;2.30;;;;;;4966188;28;35947;-77
2022/04/20 09:16:06;;;;;;;1.25;1.15;;;16.60;1.00;;;;;;4966774;28;34085;-76
2022/04/20 09:18:32;;;;;;;1.40;1.30;;;16.90;1.90;;;;;;4966990;28;34099;-76
2022/04/20 09:21:15;;;;;;;2.40;1.20;;;17.10;2.00;;;;;;4984281;28;34031;-75
2022/04/20 09:23:41;;;;;;;1.58;1.23;;;17.40;1.00;;;;;;4965597;28;35501;-77
2022/04/20 09:26:13;;;;;;;1.20;1.10;;;17.50;2.50;;;;;;4986162;28;34079;-75
2022/04/20 09:28:42;;;;;;;1.30;1.20;;;17.80;1.00;;;;;;4969611;28;34495;-75
2022/04/20 09:31:11;;;;;;;3.08;1.10;;;18.00;2.00;;;;;;4953822;28;34112;-76
2022/04/20 09:33:46;;;;;;;1.45;1.35;;;18.10;1.20;;;;;;4970574;28;36641;-76
2022/04/20 09:36:13;;;;;;;2.47;1.20;;;18.10;1.00;;;;;;4959943;28;34515;-76
2022/04/20 09:39:00;;;;;;;2.15;1.23;;;18.00;1.00;;;;;;4966377;28;34134;-77
2022/04/20 09:41:26;;;;;;;3.58;0.93;;;18.00;1.00;;;;;;4965817;28;34406;-79
2022/04/20 09:44:08;;;;;;;1.50;1.20;;;18.10;1.80;;;;;;4967428;28;35154;-75
2022/04/20 09:49:31;;;;;;;1.25;1.15;;;18.40;1.00;;;;;;4967343;28;34044;-77
2022/04/20 09:52:08;;;;;;;0.82;0.82;;;18.40;1.00;;;;;;4950279;28;34093;-76
2022/04/20 09:54:36;;;;;;;1.65;1.10;;;18.50;1.00;;;;;;4965951;28;35645;-77
2022/04/20 09:57:18;;;;;;;1.65;1.25;;;18.60;1.00;;;;;;4966275;28;34172;-76
2022/04/20 10:00:01;;;;;;;1.50;1.33;;;18.70;1.00;;;;;;4965489;28;34350;-78
2022/04/20 10:02:29;;;;;;;1.00;0.93;;;18.90;1.00;;;;;;4966102;28;34096;-74
2022/04/20 10:04:56;;;;;;;0.90;0.90;;;19.00;1.00;;;;;;4965141;28;35614;-76
2022/04/20 10:07:22;;;;;;;1.05;0.90;;;19.00;1.00;;;;;;4965698;28;34186;-75
2022/04/20 10:09:48;;;;;;;0.93;0.90;;;19.00;1.00;;;;;;4966238;28;34099;-78
2022/04/20 10:12:16;;;;;;;0.80;0.80;;;19.00;1.00;;;;;;4965032;28;34245;-75
2022/04/20 10:17:26;;;;;;;2.40;1.48;;;19.00;1.00;;;;;;4965316;28;34143;-78
2022/04/20 10:19:54;;;;;;;2.63;1.33;;;19.00;1.00;;;;;;4966153;28;34268;-76
2022/04/20 10:22:23;;;;;;;2.10;1.20;;;18.80;1.00;;;;;;4965905;28;34117;-77
2022/04/20 10:24:51;;;;;;;1.30;1.20;;;18.90;1.00;;;;;;4968699;28;34402;-77
2022/04/20 10:27:24;;;;;;;2.30;1.30;;;18.90;1.00;;;;;;4980077;28;34376;-75
2022/04/20 10:30:01;;;;;;;1.58;1.30;;;19.00;1.00;;;;;;4968496;28;34211;-75
2022/04/20 10:32:37;;;;;;;1.10;1.00;;;19.10;1.00;;;;;;4968063;28;34094;-75
2022/04/20 10:35:04;;;;;;;1.88;1.15;;;19.20;1.00;;;;;;4985739;28;35563;-76
2022/04/20 10:37:31;;;;;;;1.88;1.00;;;19.20;1.00;;;;;;4951884;28;34189;-74
2022/04/20 10:40:14;;;;;;;2.38;0.95;;;19.30;1.00;;;;;;4968316;28;34101;-76
2022/04/20 10:42:40;;;;;;;1.02;0.95;;;19.20;1.00;;;;;;4968433;28;34250;-75
2022/04/20 10:45:08;;;;;;;2.08;1.30;;;19.20;1.00;;;;;;4964612;28;35549;-74
2022/04/20 10:47:36;;;;;;;2.03;1.17;;;19.30;1.00;;;;;;4968340;28;34396;-75
2022/04/20 10:50:19;;;;;;;1.30;1.20;;;19.20;1.00;;;;;;4952298;28;34170;-75
2022/04/20 10:52:57;;;;;;;1.92;1.15;;;19.20;1.00;;;;;;4952005;28;34702;-75
2022/04/20 10:55:53;;;;;;;4.95;1.33;;;19.10;1.00;;;;;;4933212;28;35827;-75
2022/04/20 10:58:22;;;;;;;3.15;1.17;;;18.90;1.00;;;;;;4961167;28;34153;-74
2022/04/20 11:01:07;;;;;;;1.42;1.10;;;18.80;1.00;;;;;;4968091;28;34203;-75
2022/04/20 11:03:53;;;;;;;2.85;1.35;;;18.80;1.00;;;;;;4968037;28;34162;-77
2022/04/20 11:06:18;;;;;;;5.50;1.08;;;18.60;1.00;;;;;;4985164;28;34329;-76
2022/04/20 11:08:44;;;;;;;4.20;1.30;;;18.70;1.00;;;;;;4952406;28;34244;-79
2022/04/20 11:19:52;;;;;;;1.83;0.90;;;18.50;1.00;;;;;;4985277;28;34277;-78
2022/04/20 11:22:18;;;;;;;1.35;1.20;;;18.40;1.00;;;;;;4985889;28;34435;-74
2022/04/20 11:24:45;;;;;;;5.28;1.17;;;18.20;1.00;;;;;;4975941;28;34270;-78
2022/04/20 11:27:11;;;;;;;7.95;1.27;;;18.20;1.00;;;;;;4967055;28;36151;-75
2022/04/20 11:29:37;;;;;;;2.05;1.23;;;18.40;1.00;;;;;;4968185;28;34108;-77
2022/04/20 11:32:08;;;;;;;1.23;1.13;;;18.80;1.00;;;;;;4985057;28;34239;-74
2022/04/20 11:34:36;;;;;;;1.45;1.20;;;19.00;1.00;;;;;;4951771;28;34201;-76
2022/04/20 11:37:04;;;;;;;2.15;1.00;;;19.10;1.00;;;;;;4966991;28;35505;-75
2022/04/20 11:39:31;;;;;;;2.38;1.00;;;19.10;1.00;;;;;;4951052;28;34196;-76
2022/04/20 11:41:59;;;;;;;1.98;1.30;;;19.20;1.00;;;;;;4951083;28;34215;-76
2022/04/20 11:44:28;;;;;;;1.95;1.50;;;19.20;1.00;;;;;;4968186;28;34284;-77
2022/04/20 11:47:00;;;;;;;0.93;0.93;;;19.00;1.00;;;;;;4951463;28;35933;-76
2022/04/20 11:49:44;;;;;;;1.10;1.00;;;19.00;1.00;;;;;;4951077;28;34191;-76
2022/04/20 11:52:14;;;;;;;1.50;1.20;;;19.20;1.00;;;;;;4966846;28;34190;-75
2022/04/20 11:54:41;;;;;;;1.52;1.02;;;19.40;1.00;;;;;;4967719;28;34380;-80
2022/04/20 11:57:10;;;;;;;5.28;1.15;;;19.50;1.00;;;;;;4951313;28;35604;-75
2022/04/20 11:59:46;;;;;;;1.92;1.30;;;19.70;1.00;;;;;;4951022;28;34523;-76
2022/04/20 12:02:13;;;;;;;1.73;1.52;;;19.70;1.00;;;;;;4967447;28;34149;-75
2022/04/20 12:04:39;;;;;;;1.88;1.20;;;19.80;1.00;;;;;;4984569;28;34070;-76
2022/04/20 12:07:07;;;;;;;1.35;1.25;;;19.90;1.00;;;;;;4950862;28;36453;-76
2022/04/20 12:09:36;;;;;;;1.27;1.10;;;19.80;1.00;;;;;;4951206;28;34604;-76
2022/04/20 12:12:05;;;;;;;1.00;1.00;;;19.80;1.00;;;;;;4966940;28;34321;-75
2022/04/20 12:14:33;;;;;;;1.35;1.20;;;19.80;1.00;;;;;;4950845;28;34100;-76
2022/04/20 12:17:05;;;;;;;1.02;1.00;;;19.80;1.00;;;;;;4967024;28;35199;-76
2022/04/20 12:19:32;;;;;;;2.05;1.20;;;19.80;1.00;;;;;;4951363;28;34279;-75
2022/04/20 12:22:07;;;;;;;1.92;1.20;;;19.80;1.00;;;;;;4967378;28;34221;-80
2022/04/20 12:24:33;;;;;;;2.70;1.17;;;20.10;1.00;;;;;;4967511;28;34094;-76
2022/04/20 12:26:59;;;;;;;1.30;1.20;;;20.10;1.00;;;;;;4967232;28;35466;-75
2022/04/20 12:29:32;;;;;;;1.30;1.20;;;20.10;1.00;;;;;;4967139;28;34330;-76
2022/04/20 12:31:58;;;;;;;3.05;1.27;;;20.00;1.00;;;;;;4966526;28;34853;-77
2022/04/20 12:34:25;;;;;;;2.25;0.90;;;20.00;1.00;;;;;;4984202;28;34193;-79
2022/04/20 12:37:14;;;;;;;1.55;1.02;;;20.00;1.00;;;;;;4984835;28;34962;-77
2022/04/20 12:39:44;;;;;;;1.10;0.85;;;19.90;1.00;;;;;;4984313;28;34138;-75
2022/04/20 12:42:13;;;;;;;1.92;1.10;;;19.90;1.00;;;;;;4984158;28;34215;-76
2022/04/20 12:44:51;;;;;;;1.50;1.40;;;19.90;1.00;;;;;;4984055;28;34298;-76
2022/04/20 12:47:34;;;;;;;1.67;1.30;;;20.00;1.00;;;;;;4967214;28;36332;-77
2022/04/20 12:50:17;;;;;;;1.92;1.58;;;19.90;1.00;;;;;;4966360;28;34118;-76
2022/04/20 12:52:52;;;;;;;1.33;1.15;;;20.00;1.00;;;;;;4967220;28;34079;-76
2022/04/20 12:55:18;;;;;;;2.65;1.27;;;20.00;1.00;;;;;;4966720;28;34389;-76
2022/04/20 13:03:20;;;;;;;1.42;1.20;;;20.30;1.00;;;;;;4972383;28;34420;-76
2022/04/20 13:05:46;;;;;;;2.67;1.38;;;20.40;1.00;;;;;;4969680;28;34199;-75
2022/04/20 13:08:14;;;;;;;1.30;1.20;;;20.40;1.00;;;;;;4969185;28;36318;-76
2022/04/20 13:10:43;;;;;;;5.78;1.25;;;20.40;1.00;;;;;;4969278;28;34177;-76
2022/04/20 13:13:10;;;;;;;2.45;1.05;;;20.40;1.00;;;;;;4953729;28;34255;-78
2022/04/20 13:15:36;;;;;;;3.22;1.17;;;20.40;1.00;;;;;;4954865;28;34434;-77
2022/04/20 13:18:03;;;;;;;2.92;1.25;;;20.20;1.00;;;;;;4987165;28;34084;-76
2022/04/20 13:20:29;;;;;;;2.60;1.17;;;20.20;1.00;;;;;;4986955;28;34166;-76
2022/04/20 13:22:56;;;;;;;3.05;1.08;;;20.40;1.00;;;;;;4969431;28;34363;-76
2022/04/20 13:28:04;;;;;;;3.20;1.17;;;20.70;1.00;;;;;;4986896;28;34363;-76
2022/04/20 13:30:36;;;;;;;4.60;1.30;;;20.80;1.00;;;;;;4953991;28;34505;-77
2022/04/20 13:33:03;;;;;;;3.30;1.08;;;20.70;1.00;;;;;;4969718;28;34346;-75
2022/04/20 13:35:29;;;;;;;2.47;1.30;;;20.70;1.00;;;;;;4969942;28;34424;-77
2022/04/20 13:37:55;;;;;;;1.95;1.30;;;20.70;1.00;;;;;;4969615;28;35812;-76
2022/04/20 13:40:22;;;;;;;1.58;1.35;;;20.70;1.00;;;;;;4953440;28;34120;-77
2022/04/20 13:42:49;;;;;;;3.05;1.40;;;20.70;1.00;;;;;;4969494;28;34258;-76
2022/04/20 13:45:15;;;;;;;1.58;1.10;;;20.70;1.00;;;;;;4953639;28;34288;-76
2022/04/20 13:47:42;;;;;;;1.50;1.40;;;20.70;1.00;;;;;;4968975;28;35985;-77
2022/04/20 13:50:09;;;;;;;1.58;1.10;;;20.60;1.00;;;;;;4969346;28;34211;-76
2022/04/20 13:52:36;;;;;;;1.30;1.20;;;20.70;1.00;;;;;;4953531;28;34065;-74